createdAt,value
2019-01-15T00:03:52.124Z,2.60
2019-01-15T00:13:58.626Z,2.40
2019-01-15T00:19:02.382Z,2.30
2019-01-15T00:24:06.107Z,2.20
2019-01-15T00:29:09.509Z,2.10
2019-01-15T00:34:12.950Z,2.00
2019-01-15T00:39:17.163Z,2.00
2019-01-15T00:44:20.618Z,2.00
2019-01-15T00:49:24.031Z,2.10
2019-01-15T00:54:27.439Z,2.20
2019-01-15T00:59:30.857Z,3.20
2019-01-15T01:04:34.277Z,2.30
2019-01-15T01:14:40.768Z,2.30
2019-01-15T01:19:44.181Z,2.10
2019-01-15T01:24:47.901Z,2.10
2019-01-15T01:29:51.642Z,2.00
2019-01-15T01:34:55.030Z,1.90
2019-01-15T01:39:58.450Z,1.90
2019-01-15T01:45:01.855Z,1.80
2019-01-15T01:50:07.405Z,1.70
2019-01-15T01:55:12.935Z,1.80
2019-01-15T02:05:20.795Z,2.00
2019-01-15T02:10:24.439Z,2.00
2019-01-15T02:25:34.106Z,2.20
2019-01-15T02:30:37.517Z,2.30
2019-01-15T02:35:40.929Z,2.40
2019-01-15T02:45:47.775Z,2.70
2019-01-15T02:50:51.422Z,2.80
2019-01-15T02:55:55.105Z,2.90
2019-01-15T03:00:58.557Z,3.40
2019-01-15T03:06:02.248Z,3.00
2019-01-15T03:11:06.075Z,3.10
2019-01-15T03:16:09.490Z,3.20
2019-01-15T03:21:13.203Z,3.20
2019-01-15T03:26:16.638Z,3.30
2019-01-15T03:31:20.101Z,3.40
2019-01-15T03:41:26.825Z,3.60
2019-01-15T03:46:30.586Z,3.70
2019-01-15T03:51:34.413Z,3.70
2019-01-15T03:56:38.058Z,3.80
2019-01-15T04:01:41.470Z,3.80
2019-01-15T04:21:54.491Z,4.00
2019-01-15T04:26:58.141Z,4.00
2019-01-15T04:32:01.552Z,4.00
2019-01-15T04:37:04.949Z,4.00
2019-01-15T04:47:11.420Z,3.90
2019-01-15T04:52:16.716Z,3.90
2019-01-15T04:57:20.429Z,3.80
2019-01-15T05:02:23.828Z,3.80
2019-01-15T05:07:27.226Z,3.80
2019-01-15T05:17:33.707Z,3.80
2019-01-15T05:22:37.418Z,3.80
2019-01-15T05:27:40.817Z,3.80
2019-01-15T05:32:44.213Z,3.90
2019-01-15T05:37:47.673Z,3.90
2019-01-15T05:42:51.069Z,4.00
2019-01-15T05:47:55.480Z,4.00
2019-01-15T05:52:58.867Z,4.10
2019-01-15T06:18:16.339Z,4.00
2019-01-15T06:23:19.754Z,4.10
2019-01-15T06:38:30.546Z,4.20
2019-01-15T06:43:33.961Z,4.20
2019-01-15T06:48:37.351Z,4.20
2019-01-15T06:53:41.192Z,4.20
2019-01-15T07:13:57.188Z,4.50
2019-01-15T07:24:02.296Z,4.50
2019-01-15T07:29:05.947Z,4.50
2019-01-15T07:34:09.346Z,4.60
2019-01-15T07:39:12.747Z,4.60
2019-01-15T07:49:19.201Z,4.70
2019-01-15T07:54:22.665Z,4.70
2019-01-15T08:04:29.137Z,4.90
2019-01-15T08:19:38.975Z,5.10
2019-01-15T08:34:48.526Z,5.30
2019-01-15T08:39:52.028Z,5.40
2019-01-15T08:44:55.685Z,5.40
2019-01-15T08:49:59.085Z,5.50
2019-01-15T08:55:02.483Z,5.60
2019-01-15T09:00:16.381Z,5.60
2019-01-15T09:05:19.773Z,5.70
2019-01-15T09:10:23.172Z,5.80
2019-01-15T09:15:26.569Z,5.90
2019-01-15T09:20:30.057Z,5.90
2019-01-15T09:25:33.435Z,6.00
2019-01-15T09:30:36.871Z,6.00
2019-01-15T09:35:40.345Z,6.10
2019-01-15T09:45:47.166Z,6.30
2019-01-15T09:50:50.556Z,6.30
2019-01-15T09:55:54.297Z,6.40
2019-01-15T10:00:58.023Z,6.40
2019-01-15T10:11:04.736Z,6.50
2019-01-15T10:16:08.120Z,6.50
2019-01-15T10:21:11.517Z,6.50
2019-01-15T10:31:23.909Z,6.60
2019-01-15T10:41:29.858Z,6.80
2019-01-15T10:46:33.261Z,6.80
2019-01-15T10:51:36.994Z,6.90
2019-01-15T10:56:40.396Z,7.00
2019-01-15T11:11:50.219Z,7.30
2019-01-15T11:16:53.621Z,7.30
2019-01-15T11:27:00.089Z,7.50
2019-01-15T11:32:03.552Z,7.60
2019-01-15T11:37:07.113Z,7.70
2019-01-15T11:42:10.505Z,7.80
2019-01-15T11:47:13.897Z,8.00
2019-01-15T11:57:20.368Z,8.10
2019-01-15T12:02:25.246Z,8.10
2019-01-15T12:12:43.685Z,8.20
2019-01-15T12:18:03.421Z,8.20
2019-01-15T12:23:18.081Z,8.10
2019-01-15T12:28:32.298Z,8.10
2019-01-15T12:33:53.534Z,8.10
2019-01-15T12:49:29.021Z,8.10
2019-01-15T12:54:34.065Z,8.00
2019-01-15T12:59:41.786Z,8.00
2019-01-15T13:04:46.830Z,8.00
2019-01-15T13:10:01.096Z,8.10
2019-01-15T13:15:11.185Z,8.00
2019-01-15T13:20:28.638Z,8.10
2019-01-15T13:25:39.657Z,8.00
2019-01-15T13:30:50.406Z,8.00
2019-01-15T13:41:27.249Z,7.90
2019-01-15T13:46:35.049Z,7.90
2019-01-15T13:51:40.097Z,7.90
2019-01-15T13:56:45.172Z,7.80
2019-01-15T14:02:05.437Z,7.80
2019-01-15T14:07:29.146Z,7.80
2019-01-15T14:17:56.547Z,7.60
2019-01-15T14:23:16.616Z,7.60
2019-01-15T14:28:24.474Z,7.60
2019-01-15T14:33:29.509Z,7.50
2019-01-15T14:38:51.086Z,7.50
2019-01-15T14:43:56.461Z,7.60
2019-01-15T15:05:15.015Z,7.60
2019-01-15T15:10:36.577Z,7.50
2019-01-15T15:15:53.220Z,7.50
2019-01-15T15:21:16.061Z,7.50
2019-01-15T15:26:37.278Z,7.40
2019-01-15T15:31:53.978Z,7.40
2019-01-15T15:37:15.518Z,7.40
2019-01-15T15:52:54.998Z,7.40
2019-01-15T15:58:15.341Z,7.30
2019-01-15T16:03:29.481Z,7.30
2019-01-15T16:08:46.144Z,7.40
2019-01-15T16:13:53.880Z,7.30
2019-01-15T16:50:59.225Z,7.10
2019-01-15T16:56:20.736Z,7.00
2019-01-15T17:06:48.217Z,6.90
2019-01-15T17:11:53.289Z,6.90
2019-01-15T17:17:10.361Z,6.90
2019-01-15T17:22:15.428Z,6.90
2019-01-15T17:32:39.945Z,6.90
2019-01-15T17:37:45.011Z,6.90
2019-01-15T17:43:06.932Z,6.90
2019-01-15T17:48:28.427Z,6.80
2019-01-15T18:09:31.348Z,7.20
2019-01-15T18:19:56.159Z,7.20
2019-01-15T18:25:01.214Z,7.10
2019-01-15T18:30:28.069Z,7.10
2019-01-15T18:35:42.337Z,7.10
2019-01-15T18:45:52.302Z,7.10
2019-01-15T18:51:03.310Z,7.10
2019-01-15T18:56:08.705Z,7.20
2019-01-15T19:01:30.002Z,7.10
2019-01-15T19:11:40.292Z,7.20
2019-01-15T19:16:54.301Z,7.20
2019-01-15T19:27:22.183Z,7.20
2019-01-15T19:32:27.617Z,7.20
2019-01-15T19:37:33.023Z,7.10
2019-01-15T19:42:54.863Z,7.20
2019-01-15T19:58:35.512Z,7.20
2019-01-15T20:03:40.581Z,7.10
2019-01-15T20:14:12.691Z,7.10
2019-01-15T20:19:23.483Z,7.10
2019-01-15T20:24:35.694Z,7.00
2019-01-15T20:29:41.014Z,7.00
2019-01-15T20:34:46.365Z,6.90
2019-01-15T20:39:57.492Z,6.90
2019-01-15T20:50:34.594Z,6.90
2019-01-15T21:06:09.806Z,6.80
2019-01-15T21:11:27.281Z,6.70
2019-01-15T21:16:41.642Z,6.70
2019-01-15T21:21:52.811Z,6.70
2019-01-15T21:27:01.952Z,6.60
2019-01-15T21:37:32.230Z,6.60
2019-01-15T21:42:53.570Z,6.60
2019-01-15T21:48:01.588Z,6.50
2019-01-15T22:14:21.721Z,6.40
2019-01-15T22:19:27.051Z,6.40
2019-01-15T22:24:38.145Z,6.40
2019-01-15T22:29:58.274Z,6.50
2019-01-15T22:35:09.097Z,6.50
2019-01-15T22:40:30.451Z,6.50
2019-01-15T22:45:41.475Z,6.60
2019-01-15T22:55:57.325Z,6.60
2019-01-15T23:11:33.465Z,6.60
2019-01-15T23:16:40.973Z,6.70
2019-01-15T23:21:49.097Z,6.70
2019-01-15T23:32:07.534Z,6.70
2019-01-15T23:37:27.618Z,6.70
2019-01-15T23:42:48.974Z,6.70
2019-01-15T23:48:09.475Z,6.70
2019-01-15T23:53:26.088Z,6.70
2019-01-15T23:58:33.731Z,6.80
